Time;durP1;ratioP1;P1;durP2;ratioP2;P2;SDS_P1;SDS_P2;PMS_P1;PMS_P2;Temp;Humidity;BMP_temperature;BMP_pressure;BME280_temperature;BME280_humidity;BME280_pressure;Samples;Min_cycle;Max_cycle;Signal;HPM_P1;HPM_P2
2024/03/16 00:01:56;;;;;;;21.80;4.10;;;;;;;12.86;100.00;101070.97;5239444;28;20017;-75
2024/03/16 00:04:27;;;;;;;22.17;3.92;;;;;;;12.82;100.00;101066.13;5259192;28;20029;-75
2024/03/16 00:06:58;;;;;;;26.38;3.92;;;;;;;12.77;100.00;101061.25;5243759;28;20044;-74
2024/03/16 00:09:29;;;;;;;27.05;4.75;;;;;;;12.70;100.00;101068.34;5241112;28;20020;-74
2024/03/16 00:11:59;;;;;;;23.40;4.47;;;;;;;12.68;100.00;101076.59;5245967;28;20512;-75
2024/03/16 00:14:31;;;;;;;22.75;4.15;;;;;;;12.67;100.00;101076.78;5243077;28;20060;-74
2024/03/16 00:17:03;;;;;;;28.42;4.15;;;;;;;12.67;100.00;101076.78;5240553;28;20058;-75
2024/03/16 00:19:33;;;;;;;21.73;4.05;;;;;;;12.61;100.00;101078.31;5247026;28;20035;-75
2024/03/16 00:22:04;;;;;;;23.80;3.42;;;;;;;12.67;100.00;101074.09;5246245;28;20020;-75
2024/03/16 00:24:34;;;;;;;25.40;4.43;;;;;;;12.64;100.00;101072.56;5250597;28;20038;-75
2024/03/16 00:27:05;;;;;;;19.05;4.05;;;;;;;12.64;100.00;101077.13;5249720;28;20020;-75
2024/03/16 00:29:36;;;;;;;14.38;2.92;;;;;;;12.66;100.00;101081.31;5253671;28;20020;-75
2024/03/16 00:32:07;;;;;;;23.05;5.20;;;;;;;12.62;100.00;101084.53;5247790;28;20013;-75
2024/03/16 00:34:37;;;;;;;22.63;4.45;;;;;;;12.61;100.00;101080.19;5247884;28;20036;-74
2024/03/16 00:37:08;;;;;;;19.58;4.45;;;;;;;12.60;100.00;101087.41;5246195;28;20078;-75
2024/03/16 00:39:40;;;;;;;22.48;3.90;;;;;;;12.59;100.00;101096.47;5251902;28;20028;-75
2024/03/16 00:42:11;;;;;;;16.35;3.03;;;;;;;12.58;100.00;101084.03;5244723;28;20016;-75
2024/03/16 00:44:41;;;;;;;14.13;3.10;;;;;;;12.63;100.00;101083.53;5253732;28;20488;-75
2024/03/16 00:47:12;;;;;;;22.90;3.83;;;;;;;12.62;100.00;101082.69;5244912;28;20036;-74
2024/03/16 00:49:42;;;;;;;12.93;3.30;;;;;;;12.56;100.00;101086.06;5249834;28;20027;-74
2024/03/16 00:52:13;;;;;;;19.35;3.92;;;;;;;12.53;100.00;101091.78;5246856;28;20028;-74
2024/03/16 00:54:44;;;;;;;17.08;3.38;;;;;;;12.51;100.00;101096.53;5243730;28;20470;-74
2024/03/16 00:57:14;;;;;;;12.38;3.63;;;;;;;12.48;100.00;101087.94;5254876;28;20035;-74
2024/03/16 00:59:45;;;;;;;18.08;3.58;;;;;;;12.51;100.00;101098.38;5252304;28;20547;-74
2024/03/16 01:02:15;;;;;;;26.10;3.85;;;;;;;12.50;100.00;101102.06;5245860;28;20044;-74
2024/03/16 01:04:46;;;;;;;22.17;4.07;;;;;;;12.46;100.00;101103.44;5251873;28;20027;-75
2024/03/16 01:07:16;;;;;;;21.25;3.40;;;;;;;12.50;100.00;101099.38;5247395;28;20058;-74
2024/03/16 01:09:48;;;;;;;18.65;4.18;;;;;;;12.49;100.00;101108.47;5243308;28;20452;-75
2024/03/16 01:12:18;;;;;;;14.48;4.18;;;;;;;12.42;100.00;101114.53;5248803;28;20040;-74
2024/03/16 01:14:49;;;;;;;20.75;4.78;;;;;;;12.46;100.00;101117.72;5249708;28;20023;-74
2024/03/16 01:17:21;;;;;;;22.27;4.15;;;;;;;12.48;100.00;101120.25;5244557;28;20591;-74
2024/03/16 01:19:51;;;;;;;9.88;3.20;;;;;;;12.43;100.00;101116.22;5245888;28;20020;-75
2024/03/16 01:22:22;;;;;;;17.83;3.30;;;;;;;12.46;100.00;101120.41;5249182;28;20073;-75
2024/03/16 01:24:52;;;;;;;17.08;3.70;;;;;;;12.44;100.00;101122.41;5247017;28;20024;-75
2024/03/16 01:27:22;;;;;;;12.30;3.00;;;;;;;12.46;100.00;101124.97;5255339;28;20020;-75
2024/03/16 01:29:53;;;;;;;17.63;3.78;;;;;;;12.51;100.00;101131.50;5245431;28;20044;-74
2024/03/16 01:32:23;;;;;;;17.10;3.55;;;;;;;12.50;100.00;101129.84;5246023;28;20020;-75
2024/03/16 01:34:54;;;;;;;16.35;3.72;;;;;;;12.49;100.00;101133.50;5247535;28;20043;-75
2024/03/16 01:37:24;;;;;;;13.52;3.50;;;;;;;12.46;100.00;101133.03;5251421;28;20047;-74
2024/03/16 01:39:55;;;;;;;21.77;4.32;;;;;;;12.44;100.00;101131.34;5244801;28;20500;-75
2024/03/16 01:42:26;;;;;;;26.25;4.50;;;;;;;12.47;100.00;101130.16;5247694;28;20028;-75
2024/03/16 01:45:11;;;;;;;16.55;3.58;;;;;;;12.46;100.00;101133.03;5246755;28;20039;-75
2024/03/16 01:47:42;;;;;;;16.00;3.70;;;;;;;12.53;100.00;101140.22;5246867;28;20023;-75
2024/03/16 01:50:12;;;;;;;16.98;3.42;;;;;;;12.55;100.00;101138.22;5247587;28;20515;-75
2024/03/16 01:52:43;;;;;;;21.83;3.75;;;;;;;12.54;100.00;101144.59;5248398;28;20016;-75
2024/03/16 01:55:15;;;;;;;15.45;3.65;;;;;;;12.50;100.00;101137.03;5245609;28;20482;-76
2024/03/16 01:57:46;;;;;;;18.58;4.82;;;;;;;12.53;100.00;101139.41;5246766;28;20021;-75
2024/03/16 02:00:17;;;;;;;18.15;3.67;;;;;;;12.50;100.00;101145.97;5244226;28;20032;-75
2024/03/16 02:02:48;;;;;;;22.70;4.32;;;;;;;12.41;100.00;101147.00;5228483;28;20081;-75
2024/03/16 02:05:19;;;;;;;19.20;5.15;;;;;;;12.40;100.00;101150.72;5246708;28;20054;-76
2024/03/16 02:07:50;;;;;;;19.00;4.90;;;;;;;12.42;100.00;101149.50;5230780;28;20111;-75
2024/03/16 02:10:21;;;;;;;20.42;3.97;;;;;;;12.38;100.00;101148.16;5246911;28;20030;-75
2024/03/16 02:12:52;;;;;;;24.27;4.97;;;;;;;12.37;100.00;101149.19;5245747;28;20031;-75
2024/03/16 02:15:23;;;;;;;24.88;4.57;;;;;;;12.36;100.00;101152.88;5245205;28;20028;-75
2024/03/16 02:17:53;;;;;;;23.33;4.30;;;;;;;12.37;100.00;101153.72;5247476;28;20452;-75
2024/03/16 02:20:26;;;;;;;18.33;4.20;;;;;;;12.36;100.00;101160.97;5259884;28;20481;-75
2024/03/16 02:22:56;;;;;;;23.77;4.35;;;;;;;12.44;100.00;101162.78;5243790;28;20059;-75
2024/03/16 02:25:27;;;;;;;20.23;4.93;;;;;;;12.43;100.00;101161.09;5247576;28;20052;-75
2024/03/16 02:27:58;;;;;;;19.23;3.95;;;;;;;12.41;100.00;101163.97;5247752;28;20012;-75
2024/03/16 02:30:28;;;;;;;21.13;4.53;;;;;;;12.42;100.00;101171.03;5246534;28;20017;-75
2024/03/16 02:32:59;;;;;;;19.35;6.07;;;;;;;12.39;100.00;101170.53;5248171;28;20482;-75
2024/03/16 02:35:29;;;;;;;27.02;6.82;;;;;;;12.36;100.00;101173.56;5247946;28;20021;-75
2024/03/16 02:38:00;;;;;;;23.98;5.63;;;;;;;12.36;100.00;101176.28;5244275;28;20032;-75
2024/03/16 02:40:31;;;;;;;21.70;6.18;;;;;;;12.34;100.00;101181.78;5245315;28;20074;-75
2024/03/16 02:43:04;;;;;;;23.52;6.57;;;;;;;12.36;100.00;101185.19;5247065;28;20058;-75
2024/03/16 02:45:35;;;;;;;31.40;7.47;;;;;;;12.42;100.00;101192.56;5247333;28;20036;-75
2024/03/16 02:48:06;;;;;;;21.23;6.70;;;;;;;12.40;100.00;101191.91;5246983;28;20016;-74
2024/03/16 02:50:37;;;;;;;21.13;6.43;;;;;;;12.38;100.00;101196.59;5246223;28;20024;-75
2024/03/16 02:53:08;;;;;;;24.48;7.30;;;;;;;12.38;100.00;101193.06;5247870;28;20025;-75
2024/03/16 02:55:39;;;;;;;20.80;7.43;;;;;;;12.36;100.00;101205.88;5250405;28;20026;-75
2024/03/16 02:58:09;;;;;;;20.88;7.15;;;;;;;12.34;100.00;101207.88;5246238;28;20513;-75
2024/03/16 03:00:40;;;;;;;26.17;7.20;;;;;;;12.40;100.00;101204.53;5251471;28;20486;-75
2024/03/16 03:03:13;;;;;;;18.98;7.38;;;;;;;12.36;100.00;101209.38;5247337;28;20039;-75
2024/03/16 03:05:44;;;;;;;22.85;7.85;;;;;;;12.28;100.00;101233.59;5253482;28;20381;-75
2024/03/16 03:08:14;;;;;;;21.02;9.45;;;;;;;11.90;100.00;101235.94;5249949;28;20028;-76
2024/03/16 03:10:45;;;;;;;22.17;10.65;;;;;;;11.47;100.00;101245.00;5251442;28;20483;-75
2024/03/16 03:13:15;;;;;;;20.90;9.38;;;;;;;11.15;100.00;101261.81;5252803;28;20035;-75
2024/03/16 03:15:48;;;;;;;25.23;9.38;;;;;;;10.88;100.00;101266.34;5248041;28;20009;-74
2024/03/16 03:18:19;;;;;;;24.60;8.85;;;;;;;10.73;100.00;101275.97;5252968;28;20134;-75
2024/03/16 03:20:53;;;;;;;28.98;9.68;;;;;;;10.72;100.00;101274.28;5250635;28;20016;-75
2024/03/16 03:23:28;;;;;;;19.88;8.82;;;;;;;10.65;100.00;101269.72;5250835;28;20028;-75
2024/03/16 03:25:58;;;;;;;28.60;10.20;;;;;;;10.60;100.00;101288.97;5229943;28;20086;-75
2024/03/16 03:28:32;;;;;;;27.25;10.38;;;;;;;10.70;100.00;101303.16;5252991;28;20039;-75
2024/03/16 03:31:05;;;;;;;35.35;12.23;;;;;;;10.71;100.00;101312.03;5245419;28;20028;-75
2024/03/16 03:33:35;;;;;;;31.58;13.38;;;;;;;10.69;100.00;101311.31;5247949;28;20036;-74
2024/03/16 03:36:06;;;;;;;36.35;12.73;;;;;;;10.60;100.00;101316.66;5265028;28;20037;-75
2024/03/16 03:38:37;;;;;;;31.83;12.60;;;;;;;10.67;100.00;101316.03;5248285;28;20070;-74
2024/03/16 03:41:08;;;;;;;31.27;12.45;;;;;;;10.63;100.00;101332.41;5247973;28;20016;-74
2024/03/16 03:43:39;;;;;;;32.58;12.68;;;;;;;10.61;100.00;101330.91;5247419;28;20060;-75
2024/03/16 03:46:18;;;;;;;27.55;12.05;;;;;;;10.65;100.00;101336.81;5249654;28;20508;-75
2024/03/16 03:48:59;;;;;;;27.63;12.63;;;;;;;10.60;100.00;101340.78;5249175;28;20058;-75
2024/03/16 03:51:30;;;;;;;36.25;13.43;;;;;;;10.60;100.00;101340.78;5244968;28;20074;-75
2024/03/16 03:54:04;;;;;;;31.13;13.00;;;;;;;10.43;100.00;101351.50;5248446;28;20340;-75
2024/03/16 03:56:34;;;;;;;26.52;11.40;;;;;;;10.32;100.00;101347.22;5249856;28;20272;-75
2024/03/16 03:59:05;;;;;;;31.45;11.82;;;;;;;10.34;100.00;101353.25;5247230;28;20032;-75
2024/03/16 04:01:36;;;;;;;23.77;11.00;;;;;;;10.26;100.00;101358.56;5248145;28;20012;-74
2024/03/16 04:04:07;;;;;;;19.00;11.35;;;;;;;10.27;100.00;101358.41;5247249;28;20025;-75
2024/03/16 04:06:37;;;;;;;25.55;9.95;;;;;;;10.24;100.00;101368.56;5250253;28;20043;-75
2024/03/16 04:09:08;;;;;;;30.48;9.50;;;;;;;10.26;100.00;101372.81;5254013;28;20035;-75
2024/03/16 04:11:40;;;;;;;27.75;9.45;;;;;;;10.23;100.00;101373.06;5247001;28;20142;-75
2024/03/16 04:14:10;;;;;;;24.65;8.93;;;;;;;10.10;100.00;101383.34;5248091;28;20060;-75
2024/03/16 04:16:41;;;;;;;21.65;9.15;;;;;;;10.04;100.00;101395.50;5245065;28;20052;-74
2024/03/16 04:19:11;;;;;;;24.83;8.60;;;;;;;9.93;100.00;101406.41;5249155;28;20102;-75
2024/03/16 04:21:43;;;;;;;22.25;7.90;;;;;;;9.98;100.00;101405.97;5247201;28;20078;-75
2024/03/16 04:24:14;;;;;;;27.80;8.35;;;;;;;10.02;100.00;101408.19;5249764;28;20086;-75
2024/03/16 04:26:44;;;;;;;20.73;7.57;;;;;;;10.00;100.00;101415.56;5246839;28;20020;-75
2024/03/16 04:29:15;;;;;;;23.00;8.05;;;;;;;9.98;100.00;101422.03;5248401;28;20024;-75
2024/03/16 04:31:45;;;;;;;20.52;8.70;;;;;;;10.04;100.00;101426.78;5246487;28;20059;-75
2024/03/16 04:34:16;;;;;;;27.48;9.30;;;;;;;10.02;100.00;101421.59;5247870;28;20032;-76
2024/03/16 04:36:46;;;;;;;18.52;9.25;;;;;;;9.96;100.00;101421.34;5248020;28;20031;-75
2024/03/16 04:39:17;;;;;;;25.88;10.63;;;;;;;9.96;100.00;101440.97;5249228;28;20132;-75
2024/03/16 04:41:49;;;;;;;25.73;10.93;;;;;;;10.01;100.00;101435.16;5246157;28;20096;-75
2024/03/16 04:44:20;;;;;;;23.77;11.25;;;;;;;10.05;100.00;101448.13;5252672;28;20145;-74
2024/03/16 04:46:50;;;;;;;26.02;10.75;;;;;;;9.99;100.00;101448.72;5244504;28;20441;-75
2024/03/16 04:49:21;;;;;;;25.92;11.30;;;;;;;9.97;100.00;101450.69;5251511;28;20047;-74
2024/03/16 04:51:51;;;;;;;22.13;10.55;;;;;;;10.02;100.00;101456.44;5249030;28;20382;-75
2024/03/16 04:54:22;;;;;;;23.98;11.38;;;;;;;10.00;100.00;101460.28;5252122;28;20698;-75
2024/03/16 04:56:52;;;;;;;32.22;12.50;;;;;;;9.97;100.00;101458.72;5252118;28;20032;-74
2024/03/16 04:59:23;;;;;;;23.83;11.90;;;;;;;9.95;100.00;101460.72;5249002;28;20046;-75
2024/03/16 05:01:53;;;;;;;28.42;12.35;;;;;;;9.96;100.00;101467.75;5247373;28;20020;-74
2024/03/16 05:04:24;;;;;;;25.90;10.88;;;;;;;10.00;100.00;101474.53;5244329;28;20558;-75
2024/03/16 05:06:54;;;;;;;26.20;11.48;;;;;;;10.04;100.00;101478.59;5251149;28;20028;-75
2024/03/16 05:09:25;;;;;;;28.77;11.90;;;;;;;10.10;100.00;101480.69;5250786;28;20020;-74
2024/03/16 05:11:55;;;;;;;33.15;12.23;;;;;;;10.09;100.00;101487.06;5248148;28;20382;-75
2024/03/16 05:14:27;;;;;;;31.35;12.27;;;;;;;10.15;100.00;101499.00;5269956;28;20035;-75
2024/03/16 05:16:58;;;;;;;26.60;11.20;;;;;;;10.10;100.00;101499.44;5249871;28;20021;-75
2024/03/16 05:19:28;;;;;;;20.55;10.50;;;;;;;10.13;100.00;101504.50;5255543;28;20035;-75
2024/03/16 05:21:59;;;;;;;42.78;24.25;;;;;;;10.17;100.00;101510.44;5247219;28;20509;-75
2024/03/16 05:24:29;;;;;;;26.70;11.27;;;;;;;10.14;100.00;101516.09;5251696;28;20024;-74
2024/03/16 05:27:00;;;;;;;23.25;10.00;;;;;;;10.15;100.00;101525.81;5249413;28;20474;-74
2024/03/16 05:29:30;;;;;;;26.88;10.95;;;;;;;10.15;100.00;101530.34;5252939;28;20077;-75
2024/03/16 05:32:01;;;;;;;24.27;10.68;;;;;;;10.19;100.00;101537.09;5250006;28;20027;-75
2024/03/16 05:34:32;;;;;;;30.35;12.25;;;;;;;10.20;100.00;101538.78;5250121;28;20066;-75
2024/03/16 05:37:02;;;;;;;21.95;8.60;;;;;;;10.26;100.00;101543.59;5249405;28;20020;-75
2024/03/16 05:39:33;;;;;;;16.88;7.38;;;;;;;10.23;100.00;101547.38;5248794;28;20027;-75
2024/03/16 05:42:03;;;;;;;13.02;7.70;;;;;;;10.19;100.00;101553.16;5248691;28;20538;-75
2024/03/16 05:44:34;;;;;;;30.50;7.80;;;;;;;10.05;100.00;101559.88;5250228;28;20469;-74
2024/03/16 05:47:04;;;;;;;16.38;6.95;;;;;;;10.11;100.00;101561.97;5250210;28;20033;-74
2024/03/16 05:49:36;;;;;;;16.65;6.03;;;;;;;10.07;100.00;101572.13;5249573;28;20039;-74
2024/03/16 05:52:06;;;;;;;19.45;6.38;;;;;;;10.06;100.00;101574.97;5249346;28;20024;-74
2024/03/16 05:54:36;;;;;;;20.08;7.35;;;;;;;10.06;100.00;101585.69;5249603;28;20488;-74
2024/03/16 05:57:07;;;;;;;20.80;6.38;;;;;;;10.07;100.00;101588.22;5250688;28;20032;-75
2024/03/16 05:59:37;;;;;;;17.80;6.13;;;;;;;9.98;100.00;101596.28;5248617;28;20016;-75
2024/03/16 06:02:08;;;;;;;20.05;6.57;;;;;;;10.01;100.00;101599.50;5246904;28;20740;-75
2024/03/16 06:04:38;;;;;;;24.73;6.28;;;;;;;9.98;100.00;101599.78;5246865;28;20043;-74
2024/03/16 06:07:09;;;;;;;20.77;6.28;;;;;;;9.96;100.00;101603.63;5245086;28;20031;-74
2024/03/16 06:09:39;;;;;;;20.70;5.50;;;;;;;9.97;100.00;101624.91;5248865;28;20112;-75
2024/03/16 06:12:10;;;;;;;28.55;11.70;;;;;;;9.96;100.00;101620.53;5251534;28;20373;-75
2024/03/16 06:14:40;;;;;;;25.58;6.43;;;;;;;9.98;100.00;101629.28;5247687;28;20035;-74
2024/03/16 06:17:11;;;;;;;15.55;5.85;;;;;;;9.93;100.00;101628.03;5271295;28;20513;-75
2024/03/16 06:19:42;;;;;;;21.02;5.90;;;;;;;9.98;100.00;101637.31;5249211;28;20024;-74
2024/03/16 06:22:12;;;;;;;20.73;4.40;;;;;;;9.91;100.00;101640.72;5250385;28;20021;-74
2024/03/16 06:24:45;;;;;;;16.50;3.80;;;;;;;9.88;100.00;101641.84;5248508;28;20066;-75
2024/03/16 06:27:21;;;;;;;13.35;3.50;;;;;;;9.97;100.00;101662.44;5249618;28;20028;-75
2024/03/16 06:29:52;;;;;;;17.52;3.47;;;;;;;10.01;100.00;101671.91;5246577;28;20397;-75
2024/03/16 06:32:23;;;;;;;12.63;3.55;;;;;;;9.97;100.00;101678.53;5250062;28;20017;-75
2024/03/16 06:34:54;;;;;;;14.27;3.10;;;;;;;9.90;100.00;101690.81;5248338;28;20090;-74
2024/03/16 06:37:24;;;;;;;12.25;3.30;;;;;;;9.88;100.00;101694.59;5256897;28;20032;-75
2024/03/16 06:39:55;;;;;;;17.13;3.60;;;;;;;10.04;100.00;101694.88;5250951;28;20021;-74
2024/03/16 06:42:25;;;;;;;14.20;3.28;;;;;;;10.13;100.00;101696.72;5253217;28;20485;-74
2024/03/16 06:44:56;;;;;;;17.35;3.20;;;;;;;10.18;100.00;101696.28;5245917;28;20013;-74
2024/03/16 06:47:27;;;;;;;13.05;3.40;;;;;;;10.23;100.00;101707.44;5249431;28;20094;-74
2024/03/16 06:49:58;;;;;;;13.13;3.08;;;;;;;10.27;100.00;101712.41;5252779;28;20071;-75
2024/03/16 06:52:28;;;;;;;8.75;2.78;;;;;;;10.18;100.00;101707.84;5255064;28;20024;-75
2024/03/16 06:54:59;;;;;;;13.23;3.38;;;;;;;10.17;100.00;101713.38;5252656;28;20379;-74
2024/03/16 06:57:29;;;;;;;10.10;3.08;;;;;;;10.11;100.00;101718.31;5254583;28;20027;-75
2024/03/16 07:00:00;;;;;;;12.75;3.33;;;;;;;10.13;100.00;101723.53;5249048;28;20023;-75
2024/03/16 07:02:30;;;;;;;15.18;3.20;;;;;;;10.11;100.00;101729.03;5251825;28;20405;-74
2024/03/16 07:05:01;;;;;;;12.65;3.30;;;;;;;10.12;100.00;101746.81;5254221;28;20032;-74
2024/03/16 07:07:31;;;;;;;23.20;3.30;;;;;;;10.08;100.00;101760.63;5254155;28;20036;-74
2024/03/16 07:10:05;;;;;;;10.00;2.97;;;;;;;9.95;100.00;101760.94;5268944;28;20035;-74
2024/03/16 07:12:36;;;;;;;12.02;2.70;;;;;;;9.94;100.00;101766.41;5252115;28;20107;-74
2024/03/16 07:15:08;;;;;;;9.82;3.17;;;;;;;9.85;100.00;101774.31;5251303;28;20032;-74
2024/03/16 07:17:38;;;;;;;16.02;4.20;;;;;;;9.81;100.00;101772.91;5255594;28;20020;-74
2024/03/16 07:20:15;;;;;;;12.82;3.78;;;;;;;9.76;100.00;101782.34;5251087;28;20081;-74
2024/03/16 07:22:45;;;;;;;11.38;3.03;;;;;;;9.59;100.00;101799.94;5250179;28;20569;-74
2024/03/16 07:25:16;;;;;;;9.98;2.72;;;;;;;9.44;100.00;101801.25;5253240;28;20032;-74
2024/03/16 07:27:46;;;;;;;9.85;2.63;;;;;;;9.36;100.00;101798.44;5251722;28;20504;-74
2024/03/16 07:30:18;;;;;;;7.95;3.42;;;;;;;9.42;100.00;101814.81;5251473;28;20020;-74
2024/03/16 07:32:49;;;;;;;10.68;2.30;;;;;;;9.46;100.00;101818.91;5246802;28;20099;-74
2024/03/16 07:35:20;;;;;;;9.73;2.50;;;;;;;9.54;100.00;101824.44;5252540;28;20059;-74
2024/03/16 07:37:51;;;;;;;8.40;2.17;;;;;;;9.59;100.00;101834.75;5252403;28;20379;-75
2024/03/16 07:40:21;;;;;;;5.57;1.48;;;;;;;9.64;100.00;101831.66;5250136;28;20077;-74
2024/03/16 07:42:52;;;;;;;9.30;2.60;;;;;;;9.71;100.00;101838.19;5248505;28;20085;-74
2024/03/16 07:45:22;;;;;;;6.97;1.40;;;;;;;9.76;100.00;101847.50;5256274;28;20047;-74
2024/03/16 07:47:53;;;;;;;6.85;1.20;;;;;;;9.82;100.00;101848.78;5249153;28;20474;-74
2024/03/16 07:50:23;;;;;;;4.18;0.80;;;;;;;9.88;100.00;101845.53;5254164;28;20351;-74
2024/03/16 07:52:54;;;;;;;2.78;1.83;;;;;;;10.01;100.00;101853.34;5252736;28;20500;-75
2024/03/16 07:55:24;;;;;;;7.63;1.60;;;;;;;10.19;100.00;101850.81;5253300;28;20412;-75
2024/03/16 07:57:55;;;;;;;6.75;1.40;;;;;;;10.25;100.00;101855.69;5251688;28;20028;-75
2024/03/16 08:00:26;;;;;;;5.03;1.27;;;;;;;10.32;100.00;101859.47;5252564;28;20070;-75
2024/03/16 08:02:57;;;;;;;7.43;1.02;;;;;;;10.46;100.00;101853.72;5249256;28;20082;-75
2024/03/16 08:05:27;;;;;;;5.32;0.75;;;;;;;10.47;100.00;101854.56;5250321;28;20022;-76
2024/03/16 08:07:58;;;;;;;1.45;0.80;;;;;;;10.58;100.00;101863.28;5249304;28;20540;-76
2024/03/16 08:10:28;;;;;;;5.78;1.38;;;;;;;10.56;100.00;101865.28;5254271;28;20328;-76
2024/03/16 08:12:59;;;;;;;2.58;0.80;;;;;;;10.57;100.00;101874.19;5248627;28;20036;-75
2024/03/16 08:15:29;;;;;;;5.25;1.13;;;;;;;10.47;100.00;101878.69;5255420;28;20498;-76
2024/03/16 08:18:00;;;;;;;4.50;1.45;;;;;;;10.45;100.00;101888.72;5253533;28;20031;-75
2024/03/16 08:20:31;;;;;;;6.03;1.17;;;;;;;10.49;100.00;101893.69;5238840;28;20032;-75
2024/03/16 08:23:02;;;;;;;7.70;1.73;;;;;;;10.48;100.00;101896.47;5247392;28;20096;-75
2024/03/16 08:25:33;;;;;;;9.50;1.20;;;;;;;10.47;100.00;101911.72;5249974;28;20069;-75
2024/03/16 08:28:03;;;;;;;4.13;1.10;;;;;;;10.42;100.00;101913.16;5250182;28;20023;-75
2024/03/16 08:30:35;;;;;;;8.32;2.08;;;;;;;10.42;100.00;101918.50;5247179;28;20032;-76
2024/03/16 08:33:06;;;;;;;5.93;1.58;;;;;;;10.42;100.00;101922.03;5249543;28;20052;-75
2024/03/16 08:35:37;;;;;;;5.60;1.30;;;;;;;10.36;100.00;101928.81;5249316;28;20055;-75
2024/03/16 08:38:08;;;;;;;9.27;1.40;;;;;;;10.49;100.00;101925.00;5246327;28;20024;-74
2024/03/16 08:40:38;;;;;;;12.68;1.98;;;;;;;10.47;100.00;101927.00;5249472;28;20313;-75
2024/03/16 08:43:09;;;;;;;2.80;1.48;;;;;;;10.42;100.00;101921.19;5244773;28;20363;-74
2024/03/16 08:45:39;;;;;;;13.35;2.03;;;;;;;10.44;100.00;101929.94;5231745;28;20032;-74
2024/03/16 08:48:10;;;;;;;5.32;1.50;;;;;;;10.47;100.00;101932.34;5246446;28;20020;-74
2024/03/16 08:50:41;;;;;;;5.65;1.73;;;;;;;10.54;100.00;101939.72;5246928;28;20028;-74
2024/03/16 08:53:11;;;;;;;5.90;1.48;;;;;;;10.53;100.00;101940.69;5245582;28;20063;-74
2024/03/16 08:55:42;;;;;;;9.38;1.60;;;;;;;10.62;100.00;101944.38;5245433;28;20055;-74
2024/03/16 08:58:12;;;;;;;6.80;2.53;;;;;;;10.65;100.00;101949.47;5265611;28;20024;-74
2024/03/16 09:00:43;;;;;;;8.35;1.52;;;;;;;10.68;100.00;101951.00;5244364;28;20020;-75
2024/03/16 09:03:13;;;;;;;5.05;1.67;;;;;;;10.67;100.00;101952.00;5244277;28;20025;-74
2024/03/16 09:05:44;;;;;;;9.40;1.77;;;;;;;10.76;100.00;101959.22;5243119;28;20034;-74
2024/03/16 09:08:14;;;;;;;6.00;2.83;;;;;;;10.84;100.00;101970.97;5249650;28;20884;-74
2024/03/16 09:10:45;;;;;;;8.18;1.92;;;;;;;10.94;100.00;101968.25;5248674;28;20020;-75
2024/03/16 09:13:16;;;;;;;7.45;1.92;;;;;;;11.01;100.00;101973.94;5248036;28;20067;-75
2024/03/16 09:15:47;;;;;;;7.65;2.28;;;;;;;11.02;100.00;101979.16;5248530;28;20027;-75
2024/03/16 09:18:18;;;;;;;5.63;1.77;;;;;;;11.02;100.00;101983.66;5246748;28;20454;-75
2024/03/16 09:20:48;;;;;;;5.40;2.38;;;;;;;11.00;100.00;101983.81;5245652;28;20103;-75
2024/03/16 09:23:19;;;;;;;7.80;1.80;;;;;;;10.97;100.00;101989.47;5251887;28;20032;-74
2024/03/16 09:25:54;;;;;;;4.68;1.30;;;;;;;10.94;100.00;101992.41;5245498;28;20016;-74
2024/03/16 09:28:24;;;;;;;7.65;1.70;;;;;;;10.88;100.00;102006.41;5252226;28;20134;-75
2024/03/16 09:30:55;;;;;;;8.90;1.63;;;;;;;10.87;100.00;102010.09;5246157;28;20013;-74
2024/03/16 09:33:27;;;;;;;5.63;1.30;;;;;;;10.82;100.00;102017.72;5251295;28;20034;-75
2024/03/16 09:35:57;;;;;;;5.57;1.23;;;;;;;10.79;100.00;102013.50;5248350;28;20031;-74
2024/03/16 09:38:28;;;;;;;6.93;1.10;;;;;;;10.70;100.00;102011.63;5248761;28;20028;-74
2024/03/16 09:40:59;;;;;;;4.85;1.30;;;;;;;10.61;100.00;102018.66;5247255;28;20746;-74
2024/03/16 09:43:33;;;;;;;4.88;1.00;;;;;;;10.58;100.00;102010.88;5245768;28;20157;-75
2024/03/16 09:46:04;;;;;;;7.87;2.17;;;;;;;10.72;100.00;102016.84;5243049;28;20028;-75
2024/03/16 09:48:34;;;;;;;4.80;1.13;;;;;;;10.73;100.00;102024.75;5249279;28;20028;-74
2024/03/16 09:51:05;;;;;;;3.08;1.10;;;;;;;10.87;100.00;102024.34;5246236;28;20025;-74
2024/03/16 09:53:38;;;;;;;6.75;1.20;;;;;;;10.99;100.00;102033.13;5240320;28;20436;-74
2024/03/16 09:56:11;;;;;;;5.65;1.50;;;;;;;11.04;100.00;102035.38;5247437;28;20085;-74
2024/03/16 09:58:42;;;;;;;4.38;1.48;;;;;;;11.19;100.00;102042.03;5244794;28;20023;-74
2024/03/16 10:01:16;;;;;;;3.88;1.17;;;;;;;11.23;100.00;102051.50;5235123;28;20038;-74
2024/03/16 10:03:47;;;;;;;3.35;1.10;;;;;;;11.26;100.00;102048.56;5249546;28;20032;-74
2024/03/16 10:06:19;;;;;;;3.15;0.93;;;;;;;11.29;100.00;102060.84;5245148;28;20098;-74
2024/03/16 10:09:10;;;;;;;4.65;1.17;;;;;;;11.30;100.00;102052.66;5246517;28;20036;-74
2024/03/16 10:11:41;;;;;;;4.32;1.70;;;;;;;11.36;100.00;102062.00;5250117;28;20037;-74
2024/03/16 10:14:11;;;;;;;7.75;1.50;;;;;;;11.50;100.00;102074.16;5253483;28;20547;-74
2024/03/16 10:16:44;;;;;;;4.72;1.58;;;;;;;11.49;100.00;102070.59;5255845;28;20024;-74
2024/03/16 10:19:14;;;;;;;8.25;1.52;;;;;;;11.58;100.00;102080.50;5250022;28;20105;-74
2024/03/16 10:21:46;;;;;;;6.38;1.77;;;;;;;11.57;100.00;102086.88;5252331;28;20020;-75
2024/03/16 10:24:16;;;;;;;6.78;1.63;;;;;;;11.58;100.00;102091.25;5256012;28;20024;-74
2024/03/16 10:26:47;;;;;;;3.33;0.90;;;;;;;11.68;100.00;102094.78;5247101;28;20159;-75
2024/03/16 10:29:19;;;;;;;9.43;1.67;;;;;;;11.66;100.00;102099.44;5256530;28;20116;-74
2024/03/16 10:31:50;;;;;;;7.07;1.58;;;;;;;11.67;100.00;102097.59;5249422;28;20427;-74
2024/03/16 10:34:22;;;;;;;8.02;1.52;;;;;;;11.64;100.00;102109.47;5256937;28;20114;-73
2024/03/16 10:36:54;;;;;;;4.70;1.33;;;;;;;11.53;100.00;102106.09;5249855;28;20217;-74
2024/03/16 10:39:26;;;;;;;10.55;1.45;;;;;;;11.46;100.00;102113.88;5249224;28;20020;-75
2024/03/16 10:41:57;;;;;;;5.28;1.30;;;;;;;11.39;100.00;102118.13;5248949;28;20114;-73
2024/03/16 10:44:28;;;;;;;7.68;1.35;;;;;;;11.37;100.00;102117.41;5250819;28;20024;-74
2024/03/16 10:46:58;;;;;;;5.88;1.20;;;;;;;11.39;100.00;102126.19;5252353;28;20024;-74
2024/03/16 10:49:29;;;;;;;9.77;1.35;;;;;;;11.30;100.00;102132.41;5254866;28;20062;-74
2024/03/16 10:52:00;;;;;;;7.85;1.60;;;;;;;11.36;100.00;102135.38;5252585;28;20027;-75
2024/03/16 10:54:30;;;;;;;8.80;1.58;;;;;;;11.33;100.00;102135.66;5245363;28;20111;-74
2024/03/16 10:57:01;;;;;;;9.25;4.57;;;;;;;11.39;100.00;102139.59;5256036;28;20019;-74
2024/03/16 10:59:32;;;;;;;6.28;1.23;;;;;;;11.33;100.00;102137.50;5249651;28;20035;-74
2024/03/16 11:02:07;;;;;;;8.82;2.90;;;;;;;11.35;100.00;102147.13;5250675;28;20037;-74
2024/03/16 11:04:50;;;;;;;9.45;1.10;;;;;;;11.36;100.00;102146.13;5250426;28;20062;-74
2024/03/16 11:07:20;;;;;;;6.65;1.38;;;;;;;11.24;100.00;102155.28;5253149;28;20448;-74
2024/03/16 11:09:51;;;;;;;5.50;0.98;;;;;;;11.30;100.00;102157.44;5248108;28;20028;-74
2024/03/16 11:12:33;;;;;;;6.65;1.30;;;;;;;11.44;100.00;102158.84;5251936;28;20028;-74
2024/03/16 11:15:32;;;;;;;8.75;1.42;;;;;;;11.54;100.00;102158.84;5255495;28;20406;-74
2024/03/16 11:18:16;;;;;;;9.52;1.27;;;;;;;11.60;100.00;102159.16;5246594;28;20378;-74
2024/03/16 11:20:54;;;;;;;3.75;1.20;;;;;;;11.63;100.00;102161.56;5247519;28;20024;-74
2024/03/16 11:23:28;;;;;;;6.55;1.80;;;;;;;11.64;100.00;102165.09;5257712;28;20235;-74
2024/03/16 11:26:27;;;;;;;5.40;2.15;;;;;;;11.68;100.00;102169.19;5255406;28;20016;-74
2024/03/16 11:29:04;;;;;;;3.38;1.02;;;;;;;11.66;100.00;102169.34;5254312;28;20021;-74
2024/03/16 11:31:39;;;;;;;6.75;1.50;;;;;;;11.82;100.00;102170.66;5253460;28;20106;-74